Time;durP1;ratioP1;P1;durP2;ratioP2;P2;SDS_P1;SDS_P2;PMS_P1;PMS_P2;Temp;Humidity;BMP_temperature;BMP_pressure;BME280_temperature;BME280_humidity;BME280_pressure;Samples;Min_cycle;Max_cycle;Signal;HPM_P1;HPM_P2
2024/03/09 00:00:42;;;;;;;22.00;14.27;;;;;;;4.04;100.00;100954.56;5061923;28;20588;-66
2024/03/09 00:03:09;;;;;;;22.93;13.60;;;;;;;4.01;100.00;100932.81;5065991;28;20174;-66
2024/03/09 00:05:35;;;;;;;21.83;14.23;;;;;;;4.04;100.00;100945.75;5069750;28;20504;-66
2024/03/09 00:08:02;;;;;;;21.10;13.17;;;;;;;4.19;100.00;100940.72;5055644;28;20482;-66
2024/03/09 00:10:29;;;;;;;24.10;14.97;;;;;;;3.59;100.00;100864.47;5062601;28;20465;-65
2024/03/09 00:12:56;;;;;;;20.70;12.37;;;;;;;4.05;100.00;100947.41;5060582;28;20538;-66
2024/03/09 00:15:25;;;;;;;21.80;13.90;;;;;;;3.81;100.00;100917.03;5065994;28;20484;-66
2024/03/09 00:17:55;;;;;;;24.30;14.03;;;;;;;3.97;100.00;100947.38;5067443;28;20440;-66
2024/03/09 00:20:32;;;;;;;18.80;12.70;;;;;;;3.66;100.00;100899.19;5065114;28;20536;-66
2024/03/09 00:22:58;;;;;;;23.67;13.27;;;;;;;3.72;100.00;100895.91;5064756;28;20437;-66
2024/03/09 00:25:24;;;;;;;23.67;14.00;;;;;;;4.00;100.00;100937.28;5061426;28;20436;-65
2024/03/09 00:27:52;;;;;;;21.20;14.37;;;;;;;3.56;100.00;100865.63;5059978;28;20278;-66
2024/03/09 00:30:20;;;;;;;19.83;13.77;;;;;;;3.01;100.00;100796.84;5062943;28;20456;-66
2024/03/09 00:32:47;;;;;;;21.00;13.67;;;;;;;3.89;100.00;100907.50;5068666;28;20778;-66
2024/03/09 00:35:13;;;;;;;21.27;13.60;;;;;;;3.46;100.00;100822.41;5064834;28;20556;-65
2024/03/09 00:37:39;;;;;;;25.00;14.67;;;;;;;3.68;100.00;100879.47;5062019;28;21215;-66
2024/03/09 00:40:08;;;;;;;22.70;13.53;;;;;;;3.23;100.00;100768.19;5063325;28;20645;-66
2024/03/09 00:42:35;;;;;;;20.23;13.00;;;;;;;3.85;100.00;100902.50;5063277;28;20233;-65
2024/03/09 00:45:03;;;;;;;21.53;14.00;;;;;;;3.66;100.00;100881.44;5061129;28;20444;-66
2024/03/09 00:47:30;;;;;;;22.47;15.00;;;;;;;3.86;100.00;100874.13;5063263;28;20441;-66
2024/03/09 00:49:57;;;;;;;21.87;14.17;;;;;;;3.60;100.00;100847.56;5054487;28;20491;-66
2024/03/09 00:52:25;;;;;;;22.10;14.30;;;;;;;3.81;100.00;100863.16;5059756;28;20436;-66
2024/03/09 00:54:51;;;;;;;20.17;13.23;;;;;;;3.65;100.00;100889.56;5063361;28;20499;-66
2024/03/09 00:57:16;;;;;;;21.37;13.43;;;;;;;3.46;100.00;100853.41;5053560;28;20504;-66
2024/03/09 00:59:42;;;;;;;22.30;14.40;;;;;;;3.23;100.00;100813.25;5050448;28;20449;-66
2024/03/09 01:02:08;;;;;;;23.03;14.60;;;;;;;3.68;100.00;100881.31;5050841;28;20238;-66
2024/03/09 01:04:33;;;;;;;23.87;13.70;;;;;;;3.69;100.00;100875.81;5051842;28;20183;-66
2024/03/09 01:06:59;;;;;;;21.00;13.90;;;;;;;3.35;100.00;100820.81;5050200;28;20218;-66
2024/03/09 01:09:28;;;;;;;21.37;13.57;;;;;;;3.67;100.00;100871.66;5044615;28;20187;-65
2024/03/09 01:11:53;;;;;;;23.00;14.40;;;;;;;3.23;100.00;100798.19;5030322;28;20199;-66
2024/03/09 01:14:19;;;;;;;20.70;14.70;;;;;;;3.60;100.00;100836.97;5052255;28;20473;-66
2024/03/09 01:16:45;;;;;;;22.10;13.70;;;;;;;3.64;100.00;100854.22;5052525;28;20214;-66
2024/03/09 01:19:11;;;;;;;24.33;13.87;;;;;;;3.22;100.00;100801.00;5059315;28;20464;-66
2024/03/09 01:21:36;;;;;;;23.47;14.33;;;;;;;3.53;100.00;100847.34;5051376;28;20206;-65
2024/03/09 01:24:04;;;;;;;19.87;12.90;;;;;;;3.51;100.00;100862.56;5047680;28;20190;-65
2024/03/09 01:26:30;;;;;;;20.43;13.80;;;;;;;3.16;100.00;100791.84;5053178;28;20848;-66
2024/03/09 01:28:56;;;;;;;22.30;14.00;;;;;;;3.52;100.00;100818.31;5045025;28;20442;-66
2024/03/09 01:31:27;;;;;;;19.87;13.43;;;;;;;3.58;100.00;100844.22;5051532;28;21751;-65
2024/03/09 01:33:53;;;;;;;22.23;14.70;;;;;;;3.56;100.00;100849.69;5055120;28;20192;-65
2024/03/09 01:36:19;;;;;;;23.10;14.70;;;;;;;2.75;100.00;100701.38;5046861;28;20453;-64
2024/03/09 01:38:44;;;;;;;20.50;14.50;;;;;;;2.98;100.00;100743.28;5046956;28;20500;-65
2024/03/09 01:41:10;;;;;;;19.83;13.53;;;;;;;2.84;100.00;100720.84;5045371;28;20202;-66
2024/03/09 01:43:35;;;;;;;20.83;13.57;;;;;;;3.31;100.00;100792.97;5045425;28;20187;-66
2024/03/09 01:46:03;;;;;;;21.53;13.10;;;;;;;2.93;100.00;100730.53;5045843;28;20183;-65
2024/03/09 01:48:31;;;;;;;24.00;15.47;;;;;;;3.56;100.00;100833.78;5048294;28;20235;-66
2024/03/09 01:50:58;;;;;;;25.20;14.20;;;;;;;3.09;100.00;100764.25;5042873;28;20456;-65
2024/03/09 01:53:24;;;;;;;21.90;14.50;;;;;;;3.15;100.00;100763.66;5049618;28;20446;-65
2024/03/09 01:55:50;;;;;;;22.90;14.63;;;;;;;3.13;100.00;100760.34;5052727;28;20526;-65
2024/03/09 01:58:20;;;;;;;20.20;14.10;;;;;;;3.29;100.00;100794.94;5048936;28;21462;-66
2024/03/09 02:00:54;;;;;;;25.03;16.23;;;;;;;3.56;100.00;100807.25;5049391;28;20530;-65
2024/03/09 02:03:22;;;;;;;22.90;14.37;;;;;;;3.33;100.00;100775.09;5044964;28;20429;-65
2024/03/09 02:05:50;;;;;;;25.73;14.80;;;;;;;3.14;100.00;100777.91;5053356;28;20444;-66
2024/03/09 02:08:17;;;;;;;22.20;13.97;;;;;;;3.13;100.00;100784.19;5050132;28;21004;-65
2024/03/09 02:10:42;;;;;;;25.40;15.67;;;;;;;3.02;100.00;100765.88;5052931;28;20506;-65
2024/03/09 02:13:08;;;;;;;21.97;15.30;;;;;;;3.14;100.00;100762.81;5051734;28;20461;-65
2024/03/09 02:15:34;;;;;;;22.60;15.30;;;;;;;3.20;100.00;100774.63;5046100;28;20373;-65
2024/03/09 02:18:02;;;;;;;26.77;15.43;;;;;;;2.63;100.00;100691.97;5057498;28;20186;-65
2024/03/09 02:20:30;;;;;;;25.23;16.13;;;;;;;2.67;100.00;100677.47;5047777;28;20957;-65
2024/03/09 02:22:57;;;;;;;24.83;15.20;;;;;;;3.10;100.00;100763.31;5052872;28;20631;-65
2024/03/09 02:25:24;;;;;;;28.13;15.03;;;;;;;2.74;100.00;100675.03;5049959;28;20433;-65
2024/03/09 02:27:52;;;;;;;25.30;16.23;;;;;;;3.12;100.00;100750.72;5049531;28;20780;-65
2024/03/09 02:30:21;;;;;;;20.90;14.20;;;;;;;2.37;100.00;100618.63;5045906;28;20469;-64
2024/03/09 02:32:49;;;;;;;25.00;14.63;;;;;;;3.14;100.00;100772.59;5048404;28;21000;-64
2024/03/09 02:35:14;;;;;;;22.20;14.40;;;;;;;3.08;100.00;100746.72;5047985;28;20572;-65
2024/03/09 02:37:39;;;;;;;24.03;15.47;;;;;;;3.06;100.00;100703.63;5042315;28;20464;-65
2024/03/09 02:40:11;;;;;;;24.17;15.00;;;;;;;3.31;100.00;100734.63;5043559;28;20195;-65
2024/03/09 02:42:39;;;;;;;22.50;15.00;;;;;;;3.23;100.00;100736.41;5040811;28;20195;-65
2024/03/09 02:45:05;;;;;;;22.37;15.00;;;;;;;2.94;100.00;100680.00;5053938;28;20636;-65
2024/03/09 02:47:31;;;;;;;25.30;16.73;;;;;;;2.45;100.00;100616.00;5047516;28;20824;-65
2024/03/09 02:49:57;;;;;;;23.27;15.67;;;;;;;3.35;100.00;100698.03;5044268;28;20434;-65
2024/03/09 02:52:23;;;;;;;29.10;16.57;;;;;;;2.94;100.00;100660.63;5047929;28;20684;-66
2024/03/09 02:54:48;;;;;;;27.83;15.10;;;;;;;3.39;100.00;100724.09;5036091;28;20218;-65
2024/03/09 02:57:16;;;;;;;25.80;16.17;;;;;;;2.98;100.00;100669.97;5041453;28;20710;-65
2024/03/09 02:59:43;;;;;;;24.17;15.67;;;;;;;3.29;100.00;100709.25;5036481;28;20192;-65
2024/03/09 03:05:02;;;;;;;23.90;16.20;;;;;;;3.26;100.00;100688.38;5020579;28;20807;-65
2024/03/09 03:07:28;;;;;;;24.23;16.93;;;;;;;3.19;100.00;100676.75;5043055;28;20964;-66
2024/03/09 03:09:57;;;;;;;24.50;15.43;;;;;;;2.64;100.00;100588.56;5040234;28;20434;-65
2024/03/09 03:12:22;;;;;;;26.07;16.43;;;;;;;3.28;100.00;100703.13;5034589;28;20522;-66
2024/03/09 03:14:49;;;;;;;29.83;17.20;;;;;;;2.84;100.00;100623.66;5038535;28;20468;-65
2024/03/09 03:17:15;;;;;;;27.57;16.70;;;;;;;3.25;100.00;100699.97;5046850;28;20193;-65
2024/03/09 03:19:41;;;;;;;26.70;16.30;;;;;;;2.23;100.00;100542.38;5037509;28;20442;-65
2024/03/09 03:22:06;;;;;;;26.67;17.07;;;;;;;3.24;100.00;100698.28;5035710;28;20208;-65
2024/03/09 03:24:32;;;;;;;24.10;16.47;;;;;;;3.14;100.00;100672.72;5043880;28;20199;-65
2024/03/09 03:26:58;;;;;;;25.43;17.30;;;;;;;2.53;100.00;100598.56;5042312;28;20179;-65
2024/03/09 03:29:27;;;;;;;27.60;16.27;;;;;;;2.70;100.00;100629.50;5039840;28;20199;-65
2024/03/09 03:31:55;;;;;;;27.53;18.10;;;;;;;3.15;100.00;100684.13;5050960;28;20453;-65
2024/03/09 03:34:21;;;;;;;25.67;16.47;;;;;;;3.05;100.00;100663.03;5029242;28;21041;-65
2024/03/09 03:36:47;;;;;;;28.47;16.60;;;;;;;3.04;100.00;100653.44;5030968;28;20450;-65
2024/03/09 03:39:13;;;;;;;26.27;15.90;;;;;;;2.62;100.00;100610.88;5046950;28;20986;-66
2024/03/09 03:41:38;;;;;;;25.57;16.60;;;;;;;2.67;100.00;100617.38;5040714;28;20199;-65
2024/03/09 03:44:04;;;;;;;24.63;16.60;;;;;;;3.28;100.00;100681.94;5035774;28;20747;-66
2024/03/09 03:46:29;;;;;;;26.87;17.67;;;;;;;2.69;100.00;100602.19;5042874;28;20444;-65
2024/03/09 03:48:55;;;;;;;24.67;16.50;;;;;;;3.16;100.00;100677.88;5036300;28;20248;-65
2024/03/09 03:51:21;;;;;;;25.60;16.90;;;;;;;2.82;100.00;100636.22;5036997;28;20607;-66
2024/03/09 03:53:46;;;;;;;28.90;18.10;;;;;;;2.94;100.00;100656.16;5038098;28;20195;-65
2024/03/09 03:56:12;;;;;;;28.53;18.63;;;;;;;3.01;100.00;100652.91;5047246;28;20222;-65
2024/03/09 03:58:38;;;;;;;27.27;18.27;;;;;;;3.00;100.00;100640.66;5040740;28;20233;-65
2024/03/09 04:01:04;;;;;;;25.00;17.47;;;;;;;2.94;100.00;100642.91;5039947;28;20684;-65
2024/03/09 04:03:32;;;;;;;28.83;18.07;;;;;;;2.78;100.00;100626.06;5047781;28;20195;-66
2024/03/09 04:05:59;;;;;;;25.33;17.10;;;;;;;3.11;100.00;100675.69;5052300;28;20429;-65
2024/03/09 04:08:26;;;;;;;30.03;18.30;;;;;;;3.05;100.00;100667.53;5041856;28;20453;-65
2024/03/09 04:10:51;;;;;;;27.97;17.50;;;;;;;2.75;100.00;100627.22;5042902;28;20585;-65
2024/03/09 04:13:20;;;;;;;28.03;18.50;;;;;;;3.01;100.00;100664.34;5040837;28;20868;-65
2024/03/09 04:15:46;;;;;;;26.90;17.10;;;;;;;2.51;100.00;100553.69;5042829;28;20298;-65
2024/03/09 04:18:13;;;;;;;28.53;17.80;;;;;;;2.87;100.00;100628.63;5044174;28;20536;-64
2024/03/09 04:20:43;;;;;;;26.90;18.20;;;;;;;2.85;100.00;100625.31;5043469;28;20203;-66
2024/03/09 04:23:09;;;;;;;29.53;17.83;;;;;;;2.90;100.00;100646.03;5051179;28;20437;-64
2024/03/09 04:25:38;;;;;;;29.40;18.83;;;;;;;2.94;100.00;100631.50;5040839;28;22229;-66
2024/03/09 04:28:07;;;;;;;28.43;17.43;;;;;;;2.24;100.00;100514.94;5051130;28;20449;-65
2024/03/09 04:30:33;;;;;;;26.63;17.73;;;;;;;2.16;100.00;100536.03;5036690;28;20501;-66
2024/03/09 04:33:04;;;;;;;29.70;19.60;;;;;;;2.58;100.00;100597.13;5057131;28;20434;-65
2024/03/09 04:35:31;;;;;;;26.23;17.00;;;;;;;2.17;100.00;100535.88;5045501;28;20476;-65
2024/03/09 04:37:57;;;;;;;27.50;18.80;;;;;;;1.57;100.00;100435.97;5064232;28;20490;-66
2024/03/09 04:40:24;;;;;;;27.93;17.97;;;;;;;2.57;100.00;100576.91;5046939;28;21135;-66
2024/03/09 04:42:50;;;;;;;24.67;17.37;;;;;;;1.97;100.00;100481.47;5054227;28;20445;-65
2024/03/09 04:45:28;;;;;;;30.57;19.70;;;;;;;1.87;100.00;100473.59;5049118;28;20452;-65
2024/03/09 04:47:58;;;;;;;30.63;19.40;;;;;;;2.43;100.00;100595.97;5052944;28;20961;-65
2024/03/09 04:50:24;;;;;;;28.17;18.20;;;;;;;2.51;100.00;100601.34;5043419;28;20473;-65
2024/03/09 04:52:50;;;;;;;27.30;17.87;;;;;;;2.60;100.00;100611.00;5052289;28;20893;-66
2024/03/09 04:55:17;;;;;;;27.70;17.67;;;;;;;1.91;100.00;100509.34;5052632;28;21387;-65
2024/03/09 04:57:43;;;;;;;27.57;18.57;;;;;;;2.66;100.00;100621.03;5055033;28;20943;-65
2024/03/09 05:00:16;;;;;;;28.60;19.57;;;;;;;2.39;100.00;100557.56;5057584;28;20445;-65
2024/03/09 05:02:46;;;;;;;27.43;19.30;;;;;;;2.56;100.00;100604.38;5056870;28;20508;-65
2024/03/09 05:05:18;;;;;;;26.93;18.50;;;;;;;2.46;100.00;100598.34;5050565;28;22135;-65
2024/03/09 05:07:49;;;;;;;27.87;19.03;;;;;;;2.11;100.00;100568.25;5052424;28;20879;-66
2024/03/09 05:10:20;;;;;;;27.77;18.17;;;;;;;2.58;100.00;100615.66;5050359;28;20441;-65
2024/03/09 05:12:53;;;;;;;29.53;20.13;;;;;;;1.78;100.00;100485.91;5054803;28;20437;-66
2024/03/09 05:15:22;;;;;;;28.23;19.57;;;;;;;1.68;100.00;100497.53;5056379;28;20476;-66
2024/03/09 05:17:48;;;;;;;30.00;20.33;;;;;;;1.45;100.00;100491.84;5050061;28;20445;-66
2024/03/09 05:20:20;;;;;;;29.23;18.60;;;;;;;1.83;100.00;100556.88;5052480;28;20442;-65
2024/03/09 05:22:49;;;;;;;28.43;19.07;;;;;;;1.46;100.00;100448.56;5057901;28;20447;-66
2024/03/09 05:25:15;;;;;;;29.83;19.20;;;;;;;2.00;100.00;100558.69;5053760;28;20465;-65
2024/03/09 05:27:44;;;;;;;28.87;19.83;;;;;;;1.95;100.00;100544.25;5040036;28;20513;-66
2024/03/09 05:30:13;;;;;;;27.63;18.73;;;;;;;2.35;100.00;100604.69;5053801;28;20186;-65
2024/03/09 05:32:39;;;;;;;28.80;19.27;;;;;;;1.85;100.00;100543.47;5046691;28;20442;-65
2024/03/09 05:35:06;;;;;;;28.00;19.20;;;;;;;2.00;100.00;100556.06;5050479;28;20480;-65
2024/03/09 05:37:34;;;;;;;27.50;18.53;;;;;;;1.79;100.00;100507.88;5052847;28;20996;-65
2024/03/09 05:40:01;;;;;;;28.20;18.87;;;;;;;1.88;100.00;100535.25;5042721;28;20447;-65
2024/03/09 05:42:26;;;;;;;28.90;18.87;;;;;;;2.10;100.00;100597.47;5056861;28;20450;-65
2024/03/09 05:44:52;;;;;;;28.93;19.37;;;;;;;1.30;100.00;100460.63;5043780;28;20943;-65
2024/03/09 05:47:17;;;;;;;30.20;19.80;;;;;;;2.20;100.00;100569.16;5057475;28;20180;-65
2024/03/09 05:49:44;;;;;;;33.03;21.03;;;;;;;2.36;100.00;100589.63;5055010;28;20351;-66
2024/03/09 05:52:09;;;;;;;28.37;19.77;;;;;;;2.14;100.00;100561.78;5054887;28;20199;-65
2024/03/09 05:54:35;;;;;;;30.93;20.00;;;;;;;1.34;100.00;100454.06;5055858;28;20462;-65
2024/03/09 05:57:03;;;;;;;28.30;19.13;;;;;;;1.87;100.00;100505.31;5054820;28;20206;-66
2024/03/09 05:59:28;;;;;;;29.07;20.20;;;;;;;2.29;100.00;100581.47;5053230;28;20875;-66
2024/03/09 06:01:54;;;;;;;30.90;19.80;;;;;;;1.88;100.00;100500.88;5056979;28;20481;-66
2024/03/09 06:04:21;;;;;;;28.40;18.33;;;;;;;1.58;100.00;100466.69;5061673;28;20400;-66
2024/03/09 06:06:47;;;;;;;29.30;20.53;;;;;;;2.21;100.00;100581.38;5061272;28;20186;-66
2024/03/09 06:09:13;;;;;;;30.63;20.20;;;;;;;1.43;100.00;100433.00;5052615;28;20434;-66
2024/03/09 06:11:40;;;;;;;30.20;18.87;;;;;;;1.94;100.00;100514.34;5052012;28;20650;-66
2024/03/09 06:14:06;;;;;;;32.07;20.00;;;;;;;1.09;100.00;100386.91;5060353;28;20476;-66
2024/03/09 06:16:33;;;;;;;28.67;19.70;;;;;;;2.03;100.00;100542.53;5059865;28;20519;-66
2024/03/09 06:18:59;;;;;;;28.23;18.87;;;;;;;1.66;100.00;100465.13;5049201;28;20818;-65
2024/03/09 06:21:25;;;;;;;29.77;20.33;;;;;;;1.84;100.00;100518.84;5042694;28;20460;-65
2024/03/09 06:23:50;;;;;;;28.40;19.17;;;;;;;1.98;100.00;100551.91;5046665;28;21003;-67
2024/03/09 06:26:16;;;;;;;32.23;20.20;;;;;;;2.30;100.00;100574.38;5050934;28;20175;-67
2024/03/09 06:28:43;;;;;;;27.53;19.60;;;;;;;2.35;100.00;100569.44;5052836;28;20187;-67
2024/03/09 06:31:08;;;;;;;30.43;20.23;;;;;;;1.94;100.00;100510.84;5053469;28;20202;-67
2024/03/09 06:33:34;;;;;;;30.73;21.03;;;;;;;2.03;100.00;100545.16;5046711;28;20447;-67
2024/03/09 06:36:04;;;;;;;32.73;21.80;;;;;;;1.46;100.00;100422.97;5032722;28;20223;-68
2024/03/09 06:38:32;;;;;;;32.63;21.37;;;;;;;1.96;100.00;100530.03;5042157;28;20187;-67
2024/03/09 06:40:59;;;;;;;30.53;21.27;;;;;;;2.16;100.00;100543.97;5033684;28;20952;-67
2024/03/09 06:43:25;;;;;;;31.50;20.60;;;;;;;2.29;100.00;100578.00;5034516;28;20452;-66
2024/03/09 06:45:51;;;;;;;32.10;21.23;;;;;;;1.47;100.00;100419.31;5042466;28;20449;-66
2024/03/09 06:48:17;;;;;;;34.53;21.10;;;;;;;2.37;100.00;100557.72;5044360;28;20274;-67
2024/03/09 06:50:45;;;;;;;33.40;21.37;;;;;;;2.13;100.00;100518.63;5048386;28;20533;-67
2024/03/09 06:53:11;;;;;;;31.60;21.47;;;;;;;1.89;100.00;100495.44;5046754;28;20438;-67
2024/03/09 06:55:36;;;;;;;27.73;18.63;;;;;;;2.39;100.00;100573.44;5049929;28;21042;-67
2024/03/09 06:58:02;;;;;;;31.73;21.23;;;;;;;2.18;100.00;100529.59;5041017;28;20291;-67
2024/03/09 07:00:29;;;;;;;29.60;20.40;;;;;;;2.44;100.00;100572.00;5048835;28;20287;-66
2024/03/09 07:02:58;;;;;;;31.40;20.83;;;;;;;2.51;100.00;100563.44;5059632;28;20508;-67
2024/03/09 07:05:36;;;;;;;35.60;22.60;;;;;;;2.37;100.00;100533.06;5046103;28;20943;-66
2024/03/09 07:08:03;;;;;;;35.53;20.93;;;;;;;2.58;100.00;100569.81;5046697;28;20445;-67
2024/03/09 07:10:29;;;;;;;32.30;20.30;;;;;;;2.08;100.00;100470.63;5048064;28;20475;-67
2024/03/09 07:12:55;;;;;;;30.40;20.37;;;;;;;1.95;100.00;100449.88;5041482;28;21228;-67
2024/03/09 07:15:29;;;;;;;28.73;19.27;;;;;;;2.71;100.00;100538.44;5045127;28;20580;-67
2024/03/09 07:17:55;;;;;;;35.90;21.10;;;;;;;2.85;100.00;100556.44;5060038;28;20918;-67
2024/03/09 07:20:27;;;;;;;30.10;20.37;;;;;;;2.82;100.00;100534.72;5047215;28;20453;-66
2024/03/09 07:22:53;;;;;;;28.57;20.77;;;;;;;3.04;100.00;100554.53;5040737;28;20176;-67
2024/03/09 07:25:23;;;;;;;31.93;21.60;;;;;;;2.54;100.00;100484.53;5045524;28;20445;-66
2024/03/09 07:27:59;;;;;;;31.10;20.90;;;;;;;3.10;100.00;100548.63;5033045;28;20950;-66
2024/03/09 07:30:25;;;;;;;29.83;20.90;;;;;;;2.91;100.00;100507.28;5012486;28;20907;-68
2024/03/09 07:32:53;;;;;;;31.43;19.67;;;;;;;2.49;100.00;100444.47;5022540;28;20503;-67
2024/03/09 07:35:20;;;;;;;28.20;20.13;;;;;;;2.78;100.00;100486.53;5018503;28;20474;-67
2024/03/09 07:37:53;;;;;;;28.57;20.40;;;;;;;3.08;100.00;100516.16;5020252;28;20480;-66
2024/03/09 07:40:20;;;;;;;31.77;21.40;;;;;;;3.08;100.00;100535.53;5030767;28;20453;-67
2024/03/09 07:42:48;;;;;;;32.40;20.77;;;;;;;3.20;100.00;100511.41;5011561;28;20433;-67
2024/03/09 07:45:15;;;;;;;28.07;20.17;;;;;;;3.21;100.00;100508.63;5017590;28;20794;-67
2024/03/09 07:47:42;;;;;;;35.23;20.50;;;;;;;3.51;100.00;100511.69;5017710;28;21120;-67
2024/03/09 07:50:13;;;;;;;29.67;20.60;;;;;;;2.99;100.00;100440.28;5023925;28;20433;-66
2024/03/09 07:52:47;;;;;;;31.30;22.80;;;;;;;3.21;100.00;100438.84;5022955;28;21349;-66
2024/03/09 07:55:16;;;;;;;36.43;21.30;;;;;;;3.61;100.00;100492.00;5026227;28;20850;-66
2024/03/09 07:57:44;;;;;;;29.03;19.50;;;;;;;3.74;100.00;100510.09;5041436;28;21240;-65
2024/03/09 08:00:17;;;;;;;31.87;20.97;;;;;;;3.81;100.00;100504.97;5047328;28;20513;-66
2024/03/09 08:02:46;;;;;;;30.00;21.00;;;;;;;3.60;100.00;100469.13;5047374;28;20828;-66
2024/03/09 08:05:16;;;;;;;30.43;20.27;;;;;;;3.97;100.00;100497.03;5046968;28;20438;-66
2024/03/09 08:07:45;;;;;;;29.27;19.57;;;;;;;3.05;100.00;100346.88;5050799;28;20927;-67
2024/03/09 08:10:17;;;;;;;33.17;22.10;;;;;;;4.06;100.00;100496.06;5044996;28;20446;-66
2024/03/09 08:12:44;;;;;;;32.57;21.50;;;;;;;3.80;100.00;100451.09;5048286;28;20437;-66
2024/03/09 08:15:12;;;;;;;28.47;20.03;;;;;;;4.23;100.00;100494.25;5039994;28;20537;-66
2024/03/09 08:17:38;;;;;;;31.87;22.13;;;;;;;4.03;100.00;100498.22;5053087;28;20437;-66
2024/03/09 08:20:07;;;;;;;29.57;21.13;;;;;;;3.83;100.00;100423.41;5052491;28;20503;-65
2024/03/09 08:22:40;;;;;;;30.43;20.40;;;;;;;3.60;100.00;100383.44;5050642;28;20440;-66
2024/03/09 08:25:11;;;;;;;28.43;19.90;;;;;;;4.17;100.00;100465.72;5049095;28;20434;-66
2024/03/09 08:27:41;;;;;;;31.30;20.90;;;;;;;4.40;100.00;100476.50;5052795;28;20442;-66
2024/03/09 08:30:14;;;;;;;28.23;19.13;;;;;;;4.42;100.00;100485.09;5041918;28;20542;-65
2024/03/09 08:32:44;;;;;;;30.33;20.30;;;;;;;4.55;100.00;100503.19;5040068;28;20453;-67
2024/03/09 08:35:19;;;;;;;35.63;21.37;;;;;;;4.65;100.00;100484.41;5049335;28;20941;-65
2024/03/09 08:37:45;;;;;;;34.67;22.47;;;;;;;4.40;100.00;100418.06;5033999;28;20448;-65
2024/03/09 08:40:19;;;;;;;30.37;20.80;;;;;;;4.26;100.00;100427.53;5037086;28;21509;-66
2024/03/09 08:42:48;;;;;;;27.50;19.20;;;;;;;4.82;100.00;100496.66;5041637;28;20437;-66
2024/03/09 08:45:15;;;;;;;29.50;19.03;;;;;;;4.80;100.00;100472.06;5043230;28;20457;-66
2024/03/09 08:47:41;;;;;;;29.20;19.00;;;;;;;4.68;100.00;100430.94;5043993;28;21018;-66
2024/03/09 08:50:10;;;;;;;30.53;20.17;;;;;;;5.15;100.00;100508.03;5047394;28;20446;-66
2024/03/09 08:52:39;;;;;;;28.57;19.33;;;;;;;4.97;100.00;100456.91;5038654;28;20195;-66
2024/03/09 08:55:09;;;;;;;27.83;20.10;;;;;;;4.94;100.00;100451.94;5037041;28;20477;-67
2024/03/09 08:57:34;;;;;;;32.20;19.90;;;;;;;5.02;100.00;100454.59;5018764;28;21223;-66
2024/03/09 09:00:00;;;;;;;28.97;19.00;;;;;;;5.14;100.00;100449.72;5015817;28;20809;-66
2024/03/09 09:02:29;;;;;;;28.93;20.40;;;;;;;5.08;100.00;100448.56;5012779;28;20199;-66
2024/03/09 09:04:55;;;;;;;27.73;18.63;;;;;;;5.58;100.00;100516.50;5022531;28;20280;-67
2024/03/09 09:07:21;;;;;;;27.33;18.03;;;;;;;5.13;100.00;100435.59;5011251;28;20440;-66
2024/03/09 09:09:47;;;;;;;29.63;19.73;;;;;;;5.68;100.00;100508.31;5017164;28;20539;-66
2024/03/09 09:12:12;;;;;;;26.90;19.17;;;;;;;5.55;100.00;100470.78;5028337;28;20681;-66
2024/03/09 09:14:39;;;;;;;29.80;19.00;;;;;;;5.32;100.00;100420.19;5023360;28;20480;-66
2024/03/09 09:17:06;;;;;;;27.40;18.93;;;;;;;5.33;100.00;100416.56;5024428;28;20633;-67
2024/03/09 09:19:35;;;;;;;28.77;20.10;;;;;;;6.01;100.00;100473.50;5021012;28;20958;-68
2024/03/09 09:22:02;;;;;;;28.23;18.27;;;;;;;5.64;100.00;100430.66;5021711;28;20476;-67
2024/03/09 09:24:27;;;;;;;26.97;18.27;;;;;;;5.08;100.00;100360.84;5023408;28;20447;-66
2024/03/09 09:26:53;;;;;;;28.77;19.10;;;;;;;5.96;100.00;100458.09;5032957;28;20444;-67
2024/03/09 09:29:18;;;;;;;26.40;18.80;;;;;;;5.99;100.00;100457.72;5044669;28;20187;-65
2024/03/09 09:31:44;;;;;;;27.27;18.40;;;;;;;5.76;100.00;100396.47;5048181;28;20211;-65
2024/03/09 09:34:12;;;;;;;25.20;18.20;;;;;;;5.93;100.00;100409.66;5044806;28;20268;-65
2024/03/09 09:36:38;;;;;;;26.50;18.37;;;;;;;5.25;100.00;100303.09;5037217;28;20249;-65
2024/03/09 09:39:03;;;;;;;25.83;17.90;;;;;;;6.39;100.00;100453.03;5042118;28;20446;-65
2024/03/09 09:41:29;;;;;;;25.37;17.27;;;;;;;6.53;100.00;100454.09;5037651;28;20476;-65
2024/03/09 09:43:58;;;;;;;26.20;16.97;;;;;;;6.16;100.00;100405.16;5048762;28;20188;-65
2024/03/09 09:46:25;;;;;;;26.80;18.80;;;;;;;6.36;100.00;100409.97;5041357;28;20528;-64
2024/03/09 09:48:52;;;;;;;25.77;18.03;;;;;;;6.33;100.00;100417.34;5045730;28;20429;-65
2024/03/09 09:51:22;;;;;;;27.07;19.10;;;;;;;6.55;100.00;100412.94;5050709;28;20441;-65
2024/03/09 09:53:49;;;;;;;25.93;18.60;;;;;;;6.11;100.00;100328.47;5054352;28;20445;-65
2024/03/09 09:56:15;;;;;;;24.83;17.67;;;;;;;6.01;100.00;100295.13;5050299;28;20639;-65
2024/03/09 09:58:40;;;;;;;27.00;18.00;;;;;;;6.18;100.00;100328.56;5046456;28;20430;-65
2024/03/09 10:01:08;;;;;;;28.97;19.10;;;;;;;6.05;100.00;100323.88;5047760;28;20465;-65
2024/03/09 10:03:34;;;;;;;26.90;18.80;;;;;;;5.95;100.00;100271.91;5048082;28;20229;-65
2024/03/09 10:05:59;;;;;;;28.80;19.43;;;;;;;6.84;100.00;100403.28;5042521;28;20434;-65
2024/03/09 10:08:27;;;;;;;24.47;17.60;;;;;;;6.99;100.00;100385.41;5042487;28;20446;-65
2024/03/09 10:10:54;;;;;;;24.20;17.97;;;;;;;7.29;100.00;100430.72;5048717;28;20199;-65
2024/03/09 10:13:24;;;;;;;24.43;16.80;;;;;;;7.20;100.00;100435.34;5058653;28;20796;-65
2024/03/09 10:15:49;;;;;;;24.70;17.60;;;;;;;7.20;100.00;100408.66;5044174;28;20461;-65
2024/03/09 10:18:16;;;;;;;24.50;16.67;;;;;;;7.29;100.00;100436.06;5043749;28;20447;-65
2024/03/09 10:20:42;;;;;;;24.50;17.70;;;;;;;6.76;100.00;100328.72;5050502;28;20207;-65
2024/03/09 10:23:11;;;;;;;26.47;18.07;;;;;;;7.42;100.00;100406.03;5053132;28;20947;-65
2024/03/09 10:25:37;;;;;;;25.20;16.83;;;;;;;7.46;100.00;100417.97;5044428;28;20176;-65
2024/03/09 10:28:07;;;;;;;30.60;18.73;;;;;;;7.15;100.00;100372.91;5049056;28;20440;-65
2024/03/09 10:30:37;;;;;;;24.73;16.63;;;;;;;6.87;100.00;100298.13;5033812;28;20886;-66
2024/03/09 10:33:15;;;;;;;26.43;18.20;;;;;;;7.64;100.00;100438.91;5046643;28;20466;-65
2024/03/09 10:35:42;;;;;;;26.70;17.20;;;;;;;7.46;100.00;100368.13;5043958;28;20470;-65
2024/03/09 10:38:09;;;;;;;26.40;16.53;;;;;;;7.68;100.00;100384.94;5045269;28;21854;-65
2024/03/09 10:40:37;;;;;;;25.57;16.20;;;;;;;7.44;100.00;100342.63;5045465;28;20458;-66
2024/03/09 10:43:03;;;;;;;25.23;17.60;;;;;;;7.02;100.00;100251.72;5035369;28;20607;-66
2024/03/09 10:45:30;;;;;;;24.30;16.40;;;;;;;7.73;100.00;100394.25;5040449;28;20599;-66
2024/03/09 10:47:57;;;;;;;28.30;16.67;;;;;;;6.88;100.00;100259.75;5044781;28;20454;-66
2024/03/09 10:50:30;;;;;;;27.40;16.93;;;;;;;7.61;100.00;100376.06;5051330;28;20453;-65
2024/03/09 10:53:18;;;;;;;21.73;15.70;;;;;;;8.18;100.00;100416.19;5048192;28;20441;-65
2024/03/09 10:56:04;;;;;;;22.10;15.30;;;;;;;8.39;100.00;100410.84;5043550;28;20527;-65
2024/03/09 10:58:32;;;;;;;24.57;16.70;;;;;;;8.36;100.00;100371.94;5044723;28;20449;-65
2024/03/09 11:00:58;;;;;;;25.60;17.37;;;;;;;8.44;100.00;100411.06;5040677;28;20479;-66
2024/03/09 11:03:26;;;;;;;22.50;15.63;;;;;;;8.21;100.00;100333.78;5036244;28;20560;-65
2024/03/09 11:05:53;;;;;;;22.37;16.07;;;;;;;8.69;100.00;100390.06;5040786;28;20449;-65
2024/03/09 11:08:20;;;;;;;22.10;15.47;;;;;;;8.59;100.00;100376.19;5042934;28;20483;-66
2024/03/09 11:10:46;;;;;;;23.07;15.87;;;;;;;8.89;100.00;100386.66;5043206;28;20465;-66
2024/03/09 11:13:18;;;;;;;23.77;16.27;;;;;;;8.70;100.00;100364.94;5045213;28;20464;-66